Weather at Dallas Love Field

Public forecast

Using degrees Fahrenheit for public forecast. Weather courtesy of forecast.io.

Current aviation weather report (METAR) for Dallas Love Field

Retrieved 2020/09/26 16:53 UTC (8 minutes ago):

KDAL 261653Z 17008G20KT 10SM FEW028 27/20 A2994 RMK AO2 SLP130 T02720200

Aviation forecast (TAF) for Dallas Love Field

Retrieved 2020/09/26 12:22 UTC (5 hours ago):

TAF KDAL 261120Z 2612/2712 14005KT P6SM FEW007 TEMPO 2612/2613 3SM BR BKN007 FM261600 17011KT P6SM SCT040